Hazardville, Connecticut
Current Conditions -  °F | °C
As of 1:51 PM on Wednesday 26 Nov 2014 (Local Time) from KBDL Reporting Station
Heavy Snow Heavy Snow  
Wind Chill: 27°   Ceiling: 700
Heat Index: 34°   Visibility: 0.25mi
Dew Point: 31°   Wind: 9mph
Humidity: 89%   Direction: 10°N
Pressure: 30.05"   Gusts: NA
Location:  41.9843°N, 72.5534°W
Report Text: KBDL 261851Z 01008KT 1/4SM R06/4000VP6000FT +SN FG VV007 01/M01 A3005 RMK AO2 SLP177 SNINCR 1/2 P0014 T00111006 $
Loading
Personal Weather Stations






























Interactive Weather Map New forecast layout! Learn more

10-Day Weather Forecast

Advertisements
Track Severe Weather on mobile